TTPP/POS METAR and TAF weather

Enter ICAO airport designator
Station Type Date Time Source
TTPP METAR 2019/08/21 22:00 UTC NOAA

TTPP 212200Z 09007KT 9999 VCSH FEW016 28/23 Q1013 NOSIG RMK VCSH NE


Station Type Date Time Source
TTPP Decoded METAR 2019/08/21 22:00 UTC NOAA

Station name not available
Aug 21, 2019 - 06:00 PM EDT / 2019.08.21 2200 UTC
Wind: from the E (090 degrees) at 8 MPH (7 KT):0
Visibility: greater than 7 mile(s):0
Sky conditions: mostly clear
Weather: showers in the vicinity
Temperature: 82 F (28 C)
Dew Point: 73 F (23 C)
Relative Humidity: 74%
Pressure (altimeter): 29.91 in. Hg (1013 hPa)
ob: TTPP 212200Z 09007KT 9999 VCSH FEW016 28/23 Q1013 NOSIG RMK VCSH NE
cycle: 22

Station Type Date Time Source
TTPP TAF 2019/08/21 18:25 UTC NOAA

TAF TTPP 211600Z 2118/2218 12010KT 9999 FEW025
TEMPO 2116/2121 FEW012CB SCT018
BECMG 2200/2202 12005KT FEW018 PROB40
TEMPO 2208/2212 6000 SHRA/VCSH SCT015
BECMG 2211/2213 12010KT SCT25

Example: see airport list